Time;durP1;ratioP1;P1;durP2;ratioP2;P2;SDS_P1;SDS_P2;PMS_P1;PMS_P2;Temp;Humidity;BMP_temperature;BMP_pressure;BME280_temperature;BME280_humidity;BME280_pressure;Samples;Min_cycle;Max_cycle;Signal;HPM_P1;HPM_P2
2022/07/02 00:00:46;;;;;;;3.75;3.45;;;;;;;;;;4977649;28;20018;-71
2022/07/02 00:03:14;;;;;;;3.80;3.60;;;;;;;;;;4977487;28;20037;-71
2022/07/02 00:05:46;;;;;;;3.75;3.55;;;;;;;;;;4959736;28;20025;-70
2022/07/02 00:08:12;;;;;;;4.22;3.35;;;;;;;;;;4977361;28;20035;-71
2022/07/02 00:10:38;;;;;;;3.92;3.72;;;;;;;;;;4977483;28;20022;-71
2022/07/02 00:13:04;;;;;;;3.67;3.38;;;;;;;;;;4977325;28;20027;-71
2022/07/02 00:15:30;;;;;;;3.85;3.55;;;;;;;;;;4977637;28;20050;-71
2022/07/02 00:17:56;;;;;;;3.63;3.42;;;;;;;;;;4977050;28;20100;-71
2022/07/02 00:20:21;;;;;;;4.38;3.97;;;;;;;;;;4977295;28;20556;-71
2022/07/02 00:22:47;;;;;;;4.03;3.80;;;;;;;;;;4976860;28;20045;-71
2022/07/02 00:25:13;;;;;;;4.50;4.30;;;;;;;;;;4977070;28;20058;-71
2022/07/02 00:27:41;;;;;;;4.80;4.40;;;;;;;;;;4976718;28;20082;-71
2022/07/02 00:30:07;;;;;;;4.85;4.55;;;;;;;;;;4959383;28;20477;-71
2022/07/02 00:32:34;;;;;;;4.55;4.25;;;;;;;;;;4977149;28;20532;-71
2022/07/02 00:35:03;;;;;;;5.03;4.57;;;;;;;;;;4976646;28;20427;-71
2022/07/02 00:37:28;;;;;;;5.75;4.90;;;;;;;;;;4977184;28;20449;-71
2022/07/02 00:39:54;;;;;;;4.95;4.55;;;;;;;;;;4976619;28;20023;-71
2022/07/02 00:42:20;;;;;;;5.07;4.68;;;;;;;;;;4959223;28;20042;-71
2022/07/02 00:44:47;;;;;;;4.88;4.53;;;;;;;;;;4976825;28;20027;-71
2022/07/02 00:47:13;;;;;;;5.20;4.80;;;;;;;;;;4976432;28;20474;-71
2022/07/02 00:49:38;;;;;;;6.55;4.63;;;;;;;;;;4976343;28;20033;-71
2022/07/02 00:52:04;;;;;;;5.25;4.80;;;;;;;;;;4959329;28;20145;-71
2022/07/02 00:54:30;;;;;;;4.63;4.18;;;;;;;;;;4976779;28;20015;-71
2022/07/02 00:56:56;;;;;;;4.78;4.47;;;;;;;;;;4976289;28;20037;-71
2022/07/02 00:59:22;;;;;;;6.13;4.20;;;;;;;;;;4976539;28;20188;-71
2022/07/02 01:01:47;;;;;;;5.35;4.85;;;;;;;;;;4976218;28;20022;-71
2022/07/02 01:04:14;;;;;;;5.00;4.60;;;;;;;;;;4958805;28;20074;-71
2022/07/02 01:06:41;;;;;;;5.13;4.63;;;;;;;;;;4976682;28;20106;-71
2022/07/02 01:11:53;;;;;;;5.20;4.70;;;;;;;;;;4959334;28;20050;-71
2022/07/02 01:14:19;;;;;;;5.28;4.38;;;;;;;;;;4975996;28;20051;-71
2022/07/02 01:16:44;;;;;;;4.18;3.92;;;;;;;;;;4958145;28;20409;-71
2022/07/02 01:19:12;;;;;;;4.95;4.40;;;;;;;;;;4976225;28;20031;-71
2022/07/02 01:21:37;;;;;;;4.53;4.13;;;;;;;;;;4975799;28;20085;-70
2022/07/02 01:24:02;;;;;;;4.70;4.40;;;;;;;;;;4975824;28;20030;-71
2022/07/02 01:26:28;;;;;;;5.03;4.72;;;;;;;;;;4958573;28;20046;-71
2022/07/02 01:28:53;;;;;;;5.22;4.30;;;;;;;;;;4943214;28;20089;-71
2022/07/02 01:31:19;;;;;;;4.63;4.43;;;;;;;;;;4976116;28;20033;-71
2022/07/02 01:33:44;;;;;;;5.97;5.47;;;;;;;;;;4975580;28;20105;-71
2022/07/02 01:36:10;;;;;;;5.32;4.93;;;;;;;;;;4975913;28;20042;-71
2022/07/02 01:38:35;;;;;;;5.28;4.90;;;;;;;;;;4976145;28;20019;-71
2022/07/02 01:43:44;;;;;;;4.95;4.65;;;;;;;;;;4975971;28;20369;-71
2022/07/02 01:46:10;;;;;;;6.60;5.70;;;;;;;;;;4975313;28;20030;-71
2022/07/02 01:48:35;;;;;;;7.65;5.90;;;;;;;;;;4975408;28;20491;-71
2022/07/02 01:51:00;;;;;;;8.45;6.80;;;;;;;;;;4975339;28;20041;-71
2022/07/02 01:53:26;;;;;;;7.88;7.15;;;;;;;;;;4975425;28;20043;-71
2022/07/02 01:55:52;;;;;;;7.53;6.95;;;;;;;;;;4975483;28;20047;-71
2022/07/02 01:58:18;;;;;;;8.05;7.45;;;;;;;;;;4975832;28;20034;-70
2022/07/02 02:00:43;;;;;;;10.30;7.38;;;;;;;;;;4975500;28;20086;-71
2022/07/02 02:03:09;;;;;;;8.18;7.53;;;;;;;;;;4975425;28;20022;-71
2022/07/02 02:05:34;;;;;;;7.97;7.40;;;;;;;;;;4975143;28;20389;-71
2022/07/02 02:07:59;;;;;;;8.40;7.75;;;;;;;;;;4975399;28;20123;-71
2022/07/02 02:10:25;;;;;;;8.02;7.35;;;;;;;;;;4974966;28;20102;-70
2022/07/02 02:12:50;;;;;;;8.70;7.78;;;;;;;;;;4975485;28;20518;-70
2022/07/02 02:15:16;;;;;;;8.65;7.60;;;;;;;;;;4975313;28;20023;-70
2022/07/02 02:17:41;;;;;;;8.77;7.75;;;;;;;;;;4957957;28;20038;-70
2022/07/02 02:20:07;;;;;;;7.22;6.63;;;;;;;;;;4974975;28;20104;-70
2022/07/02 02:22:32;;;;;;;7.95;7.25;;;;;;;;;;4975222;28;20385;-71
2022/07/02 02:24:58;;;;;;;7.07;6.50;;;;;;;;;;4975175;28;20027;-71
2022/07/02 02:27:23;;;;;;;8.85;7.95;;;;;;;;;;4974111;28;20078;-71
2022/07/02 02:29:49;;;;;;;7.85;7.18;;;;;;;;;;4974878;28;20043;-71
2022/07/02 02:32:14;;;;;;;8.10;7.40;;;;;;;;;;4975003;28;20046;-71
2022/07/02 02:34:39;;;;;;;7.28;6.65;;;;;;;;;;4957447;28;20029;-71
2022/07/02 02:37:05;;;;;;;7.00;6.57;;;;;;;;;;4974959;28;20110;-71
2022/07/02 02:39:30;;;;;;;6.63;6.05;;;;;;;;;;4974761;28;20354;-71
2022/07/02 02:41:56;;;;;;;5.97;5.43;;;;;;;;;;4974724;28;20027;-71
2022/07/02 02:44:21;;;;;;;7.40;6.25;;;;;;;;;;4974991;28;20027;-71
2022/07/02 02:46:46;;;;;;;6.90;6.40;;;;;;;;;;4974699;28;20537;-71
2022/07/02 02:49:12;;;;;;;6.22;5.72;;;;;;;;;;4974701;28;20377;-71
2022/07/02 02:51:37;;;;;;;5.90;5.50;;;;;;;;;;4974684;28;20114;-71
2022/07/02 02:54:02;;;;;;;6.15;5.60;;;;;;;;;;4974541;28;20026;-71
2022/07/02 02:56:28;;;;;;;6.35;5.75;;;;;;;;;;4974535;28;20022;-71
2022/07/02 02:58:53;;;;;;;6.63;6.05;;;;;;;;;;4974866;28;20023;-71
2022/07/02 03:01:19;;;;;;;6.65;6.05;;;;;;;;;;4974842;28;20023;-71
2022/07/02 03:03:44;;;;;;;6.45;5.85;;;;;;;;;;4974869;28;20101;-71
2022/07/02 03:06:09;;;;;;;6.13;5.60;;;;;;;;;;4974808;28;20529;-71
2022/07/02 03:08:35;;;;;;;6.20;5.60;;;;;;;;;;4974836;28;20027;-71
2022/07/02 03:11:01;;;;;;;6.20;5.80;;;;;;;;;;4974790;28;20035;-71
2022/07/02 03:13:26;;;;;;;5.32;5.03;;;;;;;;;;4974689;28;20023;-71
2022/07/02 03:15:52;;;;;;;5.20;4.80;;;;;;;;;;4957065;28;20055;-71
2022/07/02 03:18:17;;;;;;;5.10;4.50;;;;;;;;;;4974465;28;20019;-71
2022/07/02 03:20:43;;;;;;;5.15;4.85;;;;;;;;;;4974735;28;20443;-71
2022/07/02 03:23:08;;;;;;;4.88;4.57;;;;;;;;;;4974953;28;20026;-71
2022/07/02 03:25:33;;;;;;;5.45;5.00;;;;;;;;;;4974372;28;20027;-71
2022/07/02 03:27:59;;;;;;;5.00;4.55;;;;;;;;;;4974274;28;20113;-71
2022/07/02 03:30:24;;;;;;;4.70;4.40;;;;;;;;;;4974607;28;20038;-71
2022/07/02 03:32:50;;;;;;;4.57;4.18;;;;;;;;;;4974530;28;20422;-71
2022/07/02 03:35:15;;;;;;;4.90;4.55;;;;;;;;;;4974269;28;20031;-71
2022/07/02 03:37:40;;;;;;;5.18;4.75;;;;;;;;;;4974344;28;20030;-71
2022/07/02 03:40:06;;;;;;;5.05;4.65;;;;;;;;;;4977957;28;20035;-71
2022/07/02 03:42:31;;;;;;;4.70;4.40;;;;;;;;;;4977703;28;20026;-71
2022/07/02 03:44:57;;;;;;;4.60;4.20;;;;;;;;;;4977843;28;20080;-71
2022/07/02 03:47:22;;;;;;;4.78;4.47;;;;;;;;;;4978149;28;20097;-71
2022/07/02 03:49:48;;;;;;;4.97;4.68;;;;;;;;;;4977578;28;20178;-71
2022/07/02 03:52:13;;;;;;;5.13;4.72;;;;;;;;;;4977995;28;20169;-71
2022/07/02 03:54:39;;;;;;;5.38;4.88;;;;;;;;;;4977759;28;20489;-71
2022/07/02 03:57:18;;;;;;;5.57;5.13;;;;;;;;;;4977443;28;20011;-70
2022/07/02 03:59:44;;;;;;;5.45;4.72;;;;;;;;;;4977687;28;20477;-71
2022/07/02 04:02:09;;;;;;;5.38;4.95;;;;;;;;;;4977382;28;20030;-70
2022/07/02 04:04:41;;;;;;;5.75;5.28;;;;;;;;;;4977225;28;20031;-71
2022/07/02 04:07:06;;;;;;;5.47;4.97;;;;;;;;;;4977249;28;20366;-71
2022/07/02 04:09:32;;;;;;;5.20;4.90;;;;;;;;;;4977234;28;20109;-71
2022/07/02 04:11:57;;;;;;;5.55;4.97;;;;;;;;;;4977610;28;20025;-71
2022/07/02 04:14:23;;;;;;;5.82;5.43;;;;;;;;;;4977120;28;20362;-71
2022/07/02 04:16:48;;;;;;;5.30;4.80;;;;;;;;;;4977139;28;20166;-71
2022/07/02 04:19:14;;;;;;;5.05;4.75;;;;;;;;;;4977478;28;20027;-71
2022/07/02 04:21:39;;;;;;;5.22;4.93;;;;;;;;;;4977581;28;20022;-71
2022/07/02 04:24:05;;;;;;;4.78;4.38;;;;;;;;;;4976942;28;20470;-71
2022/07/02 04:26:30;;;;;;;4.55;4.20;;;;;;;;;;4977052;28;20074;-71
2022/07/02 04:28:56;;;;;;;4.32;4.10;;;;;;;;;;4977132;28;20034;-71
2022/07/02 04:31:21;;;;;;;4.78;4.32;;;;;;;;;;4959245;28;20035;-71
2022/07/02 04:33:46;;;;;;;3.83;3.60;;;;;;;;;;4976692;28;20077;-71
2022/07/02 04:36:12;;;;;;;4.28;3.85;;;;;;;;;;4976865;28;20373;-71
2022/07/02 04:38:38;;;;;;;4.47;4.07;;;;;;;;;;4976679;28;20027;-70
2022/07/02 04:41:03;;;;;;;4.35;4.05;;;;;;;;;;4976633;28;20450;-71
2022/07/02 04:43:28;;;;;;;4.80;4.40;;;;;;;;;;4976898;28;20035;-72
2022/07/02 04:45:54;;;;;;;3.92;3.72;;;;;;;;;;4976433;28;20440;-71
2022/07/02 04:48:19;;;;;;;4.38;4.03;;;;;;;;;;4959141;28;20045;-71
2022/07/02 04:50:45;;;;;;;4.47;4.18;;;;;;;;;;4975995;28;20429;-71
2022/07/02 04:53:10;;;;;;;4.30;4.00;;;;;;;;;;4976572;28;20158;-71
2022/07/02 04:55:35;;;;;;;4.05;3.85;;;;;;;;;;4976634;28;20019;-71
2022/07/02 04:58:01;;;;;;;4.53;4.13;;;;;;;;;;4976347;28;20362;-71
2022/07/02 05:00:26;;;;;;;4.68;4.38;;;;;;;;;;4976304;28;20483;-71
2022/07/02 05:02:52;;;;;;;4.53;4.13;;;;;;;;;;4958864;28;20027;-71
2022/07/02 05:05:17;;;;;;;4.50;4.20;;;;;;;;;;4976496;28;20373;-71
2022/07/02 05:07:42;;;;;;;4.63;4.32;;;;;;;;;;4976129;28;20130;-71
2022/07/02 05:10:08;;;;;;;4.55;4.25;;;;;;;;;;4976679;28;20097;-71
2022/07/02 05:12:33;;;;;;;4.75;4.35;;;;;;;;;;4976540;28;20358;-71
2022/07/02 05:14:58;;;;;;;4.70;4.30;;;;;;;;;;4976054;28;20362;-71
2022/07/02 05:17:24;;;;;;;4.40;4.20;;;;;;;;;;4975838;28;20035;-71
2022/07/02 05:19:50;;;;;;;4.10;3.78;;;;;;;;;;4976245;28;20445;-71
2022/07/02 05:22:15;;;;;;;4.05;3.72;;;;;;;;;;4975873;28;20536;-71
2022/07/02 05:24:41;;;;;;;5.18;4.78;;;;;;;;;;4976128;28;20034;-71
2022/07/02 05:27:08;;;;;;;4.53;4.22;;;;;;;;;;4949682;28;20154;-71
2022/07/02 05:29:33;;;;;;;5.03;4.70;;;;;;;;;;4995440;28;20122;-71
2022/07/02 05:31:58;;;;;;;4.82;4.50;;;;;;;;;;4977706;28;20512;-71
2022/07/02 05:34:24;;;;;;;4.95;4.55;;;;;;;;;;4977598;28;20026;-71
2022/07/02 05:36:49;;;;;;;4.65;4.35;;;;;;;;;;4977594;28;20042;-71
2022/07/02 05:39:15;;;;;;;5.00;4.60;;;;;;;;;;4994990;28;20077;-71
2022/07/02 05:41:41;;;;;;;5.00;4.65;;;;;;;;;;4994992;28;20049;-71
2022/07/02 05:44:07;;;;;;;4.95;4.47;;;;;;;;;;4995206;28;20041;-71
2022/07/02 05:46:32;;;;;;;4.82;4.43;;;;;;;;;;4993589;28;20385;-71
2022/07/02 05:48:58;;;;;;;4.72;4.32;;;;;;;;;;4994819;28;20109;-71
2022/07/02 05:51:23;;;;;;;5.07;4.57;;;;;;;;;;4977441;28;20091;-71
2022/07/02 05:53:48;;;;;;;4.93;4.50;;;;;;;;;;4994664;28;20037;-71
2022/07/02 05:56:14;;;;;;;5.18;4.78;;;;;;;;;;4995011;28;20026;-71
2022/07/02 05:58:39;;;;;;;5.10;4.60;;;;;;;;;;4994970;28;20031;-71
2022/07/02 06:01:05;;;;;;;4.63;4.22;;;;;;;;;;4977194;28;20014;-71
2022/07/02 06:03:30;;;;;;;5.30;4.85;;;;;;;;;;4994631;28;20038;-71
2022/07/02 06:08:40;;;;;;;5.22;4.82;;;;;;;;;;4994560;28;20496;-71
2022/07/02 06:11:06;;;;;;;5.32;4.90;;;;;;;;;;4994494;28;20026;-71
2022/07/02 06:13:32;;;;;;;5.80;4.82;;;;;;;;;;4994705;28;20042;-71
2022/07/02 06:15:57;;;;;;;5.90;5.40;;;;;;;;;;4977689;28;20037;-71
2022/07/02 06:18:22;;;;;;;5.70;5.20;;;;;;;;;;4994363;28;20507;-71
2022/07/02 06:20:48;;;;;;;5.57;5.15;;;;;;;;;;4994371;28;20027;-71
2022/07/02 06:23:13;;;;;;;5.38;4.97;;;;;;;;;;4994896;28;20082;-71
2022/07/02 06:25:38;;;;;;;5.80;4.75;;;;;;;;;;4994352;28;20098;-71
2022/07/02 06:28:04;;;;;;;5.55;5.05;;;;;;;;;;4961746;28;20457;-71
2022/07/02 06:30:30;;;;;;;5.65;5.25;;;;;;;;;;4975141;28;20042;-71
2022/07/02 06:32:55;;;;;;;5.50;4.97;;;;;;;;;;4975016;28;20048;-71
2022/07/02 06:35:20;;;;;;;5.28;4.82;;;;;;;;;;4975110;28;20034;-70
2022/07/02 06:37:46;;;;;;;4.95;3.95;;;;;;;;;;4975095;28;20074;-71
2022/07/02 06:40:11;;;;;;;4.63;4.28;;;;;;;;;;4975008;28;20019;-71
2022/07/02 06:42:37;;;;;;;4.93;4.53;;;;;;;;;;4957415;28;20054;-71
2022/07/02 06:45:04;;;;;;;4.75;4.40;;;;;;;;;;4957145;28;20480;-71
2022/07/02 06:47:31;;;;;;;4.15;3.88;;;;;;;;;;4974967;28;20035;-71
2022/07/02 06:49:57;;;;;;;4.95;4.53;;;;;;;;;;4974697;28;20054;-71
2022/07/02 06:52:23;;;;;;;5.50;4.30;;;;;;;;;;4974585;28;20052;-71
2022/07/02 06:54:48;;;;;;;4.45;4.05;;;;;;;;;;4974688;28;20022;-71
2022/07/02 06:57:14;;;;;;;4.00;3.50;;;;;;;;;;4957487;28;20520;-71
2022/07/02 06:59:39;;;;;;;3.80;3.45;;;;;;;;;;4974656;28;20022;-71
2022/07/02 07:02:05;;;;;;;3.70;3.40;;;;;;;;;;4975136;28;20073;-71
2022/07/02 07:04:31;;;;;;;3.75;3.50;;;;;;;;;;4974877;28;20050;-71
2022/07/02 07:06:57;;;;;;;3.83;3.50;;;;;;;;;;4974487;28;20113;-71
2022/07/02 07:09:25;;;;;;;3.78;3.47;;;;;;;;;;4957254;28;20046;-71
2022/07/02 07:11:51;;;;;;;4.07;3.13;;;;;;;;;;4974837;28;20027;-71
2022/07/02 07:14:16;;;;;;;3.17;2.88;;;;;;;;;;4976516;28;20366;-71
2022/07/02 07:16:42;;;;;;;3.58;3.05;;;;;;;;;;4960867;28;20031;-71
2022/07/02 07:19:07;;;;;;;3.28;3.00;;;;;;;;;;4978708;28;20033;-71
2022/07/02 07:21:33;;;;;;;2.70;2.50;;;;;;;;;;4978115;28;20477;-71
2022/07/02 07:23:59;;;;;;;3.72;3.42;;;;;;;;;;4978082;28;20023;-71
2022/07/02 07:26:24;;;;;;;3.08;2.67;;;;;;;;;;4978367;28;20165;-71
2022/07/02 07:28:50;;;;;;;2.70;2.50;;;;;;;;;;4978261;28;20035;-71
2022/07/02 07:31:21;;;;;;;2.60;2.50;;;;;;;;;;4978451;28;20038;-72
2022/07/02 07:33:47;;;;;;;4.65;2.45;;;;;;;;;;4978117;28;20038;-71
2022/07/02 07:36:12;;;;;;;3.50;2.20;;;;;;;;;;4978051;28;20015;-71
2022/07/02 07:38:39;;;;;;;2.20;1.83;;;;;;;;;;4977649;28;20026;-71
2022/07/02 07:41:04;;;;;;;2.70;2.50;;;;;;;;;;4977985;28;20030;-71
2022/07/02 07:43:29;;;;;;;3.33;2.30;;;;;;;;;;4978012;28;20027;-71
2022/07/02 07:45:55;;;;;;;2.05;1.90;;;;;;;;;;4977946;28;20019;-71
2022/07/02 07:48:20;;;;;;;3.65;2.67;;;;;;;;;;4960301;28;20474;-71
2022/07/02 07:50:45;;;;;;;2.83;1.88;;;;;;;;;;4977615;28;20033;-71
2022/07/02 07:53:11;;;;;;;2.33;2.20;;;;;;;;;;4977359;28;20428;-71
2022/07/02 07:55:36;;;;;;;2.15;2.05;;;;;;;;;;4977820;28;20030;-71
2022/07/02 07:58:02;;;;;;;1.92;1.80;;;;;;;;;;4977728;28;20038;-71
2022/07/02 08:00:28;;;;;;;2.08;1.95;;;;;;;;;;4977687;28;20018;-71
2022/07/02 08:02:53;;;;;;;3.22;2.00;;;;;;;;;;4977248;28;20062;-71
2022/07/02 08:05:18;;;;;;;2.08;1.90;;;;;;;;;;4977630;28;20378;-71
2022/07/02 08:07:44;;;;;;;2.47;2.33;;;;;;;;;;4977690;28;20121;-71
2022/07/02 08:10:10;;;;;;;3.30;3.00;;;;;;;;;;4977794;28;20031;-71
2022/07/02 08:12:36;;;;;;;3.45;3.25;;;;;;;;;;4977407;28;20180;-71
2022/07/02 08:15:02;;;;;;;3.97;3.67;;;;;;;;;;4977101;28;20038;-71
2022/07/02 08:17:29;;;;;;;3.85;3.63;;;;;;;;;;4960121;28;20421;-71
2022/07/02 08:19:54;;;;;;;3.63;3.33;;;;;;;;;;4977578;28;20019;-71
2022/07/02 08:22:20;;;;;;;3.65;3.45;;;;;;;;;;4977319;28;20027;-71
2022/07/02 08:24:45;;;;;;;4.10;3.75;;;;;;;;;;4976170;28;20425;-71
2022/07/02 08:27:11;;;;;;;3.75;3.50;;;;;;;;;;4976715;28;20067;-71
2022/07/02 08:29:36;;;;;;;4.15;3.40;;;;;;;;;;4977155;28;20027;-71
2022/07/02 08:32:03;;;;;;;3.80;3.50;;;;;;;;;;4959786;28;20030;-71
2022/07/02 08:34:28;;;;;;;3.85;3.58;;;;;;;;;;4959483;28;20458;-71
2022/07/02 08:36:54;;;;;;;3.60;3.17;;;;;;;;;;4959368;28;20030;-71
2022/07/02 08:39:19;;;;;;;4.07;3.78;;;;;;;;;;4976623;28;20489;-71
2022/07/02 08:41:46;;;;;;;3.88;3.55;;;;;;;;;;4977164;28;20035;-71
2022/07/02 08:44:12;;;;;;;3.65;3.25;;;;;;;;;;4976858;28;20053;-71
2022/07/02 08:46:41;;;;;;;3.97;3.67;;;;;;;;;;4976542;28;20113;-71
2022/07/02 08:49:07;;;;;;;4.13;3.80;;;;;;;;;;4976535;28;20039;-71
2022/07/02 08:51:33;;;;;;;3.88;3.67;;;;;;;;;;4977006;28;20182;-71
2022/07/02 08:54:00;;;;;;;3.60;3.40;;;;;;;;;;4976627;28;20033;-71
2022/07/02 08:56:26;;;;;;;3.67;3.38;;;;;;;;;;4976651;28;20030;-71
2022/07/02 08:58:52;;;;;;;4.45;4.05;;;;;;;;;;4976586;28;20074;-71
2022/07/02 09:01:18;;;;;;;4.60;4.07;;;;;;;;;;4976337;28;20031;-71
2022/07/02 09:03:44;;;;;;;4.57;4.20;;;;;;;;;;4976461;28;20030;-71
2022/07/02 09:06:10;;;;;;;5.85;4.18;;;;;;;;;;4976434;28;20525;-71
2022/07/02 09:08:36;;;;;;;4.40;4.00;;;;;;;;;;4976320;28;20027;-71
2022/07/02 09:11:01;;;;;;;4.47;3.92;;;;;;;;;;4976031;28;20039;-71
2022/07/02 09:13:27;;;;;;;3.78;3.55;;;;;;;;;;4976296;28;20420;-71
2022/07/02 09:15:53;;;;;;;4.80;4.50;;;;;;;;;;4975986;28;20059;-71
2022/07/02 09:18:19;;;;;;;6.28;4.07;;;;;;;;;;4958510;28;20452;-71
2022/07/02 09:20:44;;;;;;;4.28;3.97;;;;;;;;;;4958901;28;20066;-70
2022/07/02 09:23:19;;;;;;;4.38;4.07;;;;;;;;;;4976456;28;20097;-71
2022/07/02 09:25:45;;;;;;;4.22;3.60;;;;;;;;;;4976113;28;20102;-71
2022/07/02 09:28:12;;;;;;;3.97;3.67;;;;;;;;;;4975685;28;20433;-73
2022/07/02 09:30:38;;;;;;;4.45;3.58;;;;;;;;;;4975924;28;20031;-71
2022/07/02 09:33:29;;;;;;;3.70;3.50;;;;;;;;;;4976193;28;20149;-70
2022/07/02 09:35:55;;;;;;;3.85;3.55;;;;;;;;;;4975337;28;20092;-71
2022/07/02 09:38:20;;;;;;;3.17;3.03;;;;;;;;;;4975581;28;20485;-71
2022/07/02 09:40:56;;;;;;;3.40;3.03;;;;;;;;;;4975601;28;20062;-70
2022/07/02 09:43:28;;;;;;;3.30;2.90;;;;;;;;;;4975769;28;20118;-71
2022/07/02 09:45:55;;;;;;;2.75;2.65;;;;;;;;;;4975771;28;20030;-71
2022/07/02 09:48:20;;;;;;;3.00;2.80;;;;;;;;;;4975475;28;20030;-71
2022/07/02 09:50:45;;;;;;;3.53;3.33;;;;;;;;;;4975940;28;20049;-71
2022/07/02 09:53:11;;;;;;;3.95;3.72;;;;;;;;;;4975833;28;20014;-71
2022/07/02 09:55:36;;;;;;;2.92;2.83;;;;;;;;;;4975349;28;20066;-71
2022/07/02 09:58:02;;;;;;;3.72;3.53;;;;;;;;;;4975311;28;20417;-71
2022/07/02 10:00:30;;;;;;;3.38;3.17;;;;;;;;;;4958028;28;20035;-71
2022/07/02 10:02:56;;;;;;;3.20;3.00;;;;;;;;;;4957832;28;20118;-70
2022/07/02 10:05:23;;;;;;;3.03;2.92;;;;;;;;;;4941898;28;20046;-71
2022/07/02 10:07:49;;;;;;;2.75;2.50;;;;;;;;;;4992506;23;20109;-65
2022/07/02 10:10:15;;;;;;;3.00;2.80;;;;;;;;;;5013810;28;20392;-64
2022/07/02 10:12:42;;;;;;;2.97;2.78;;;;;;;;;;5014325;28;20025;-65
2022/07/02 10:15:09;;;;;;;2.50;2.40;;;;;;;;;;4996524;28;20030;-65
2022/07/02 10:17:35;;;;;;;2.95;2.13;;;;;;;;;;5014606;28;20088;-65
2022/07/02 10:20:02;;;;;;;2.60;2.50;;;;;;;;;;5013359;28;20026;-65
2022/07/02 10:22:27;;;;;;;2.40;2.30;;;;;;;;;;5013986;28;20022;-65
2022/07/02 10:24:53;;;;;;;1.60;1.50;;;;;;;;;;4996683;28;20121;-65
2022/07/02 10:27:20;;;;;;;2.65;1.90;;;;;;;;;;5014499;28;20045;-65
2022/07/02 10:29:45;;;;;;;1.77;1.67;;;;;;;;;;5014170;28;20112;-65
2022/07/02 10:32:14;;;;;;;1.95;1.80;;;;;;;;;;5014077;28;20049;-65
2022/07/02 10:34:54;;;;;;;1.70;1.60;;;;;;;;;;4996271;28;20062;-64
2022/07/02 10:37:21;;;;;;;1.98;1.88;;;;;;;;;;5013831;28;20033;-64
2022/07/02 10:39:46;;;;;;;1.95;1.80;;;;;;;;;;5014131;28;20029;-64
2022/07/02 10:42:11;;;;;;;1.80;1.70;;;;;;;;;;4996625;28;20038;-66
2022/07/02 10:44:38;;;;;;;2.05;1.95;;;;;;;;;;4996839;28;20057;-65
2022/07/02 10:47:04;;;;;;;1.80;1.70;;;;;;;;;;5014058;28;20379;-65
2022/07/02 10:49:29;;;;;;;1.55;1.55;;;;;;;;;;5016430;28;20101;-65
2022/07/02 10:51:57;;;;;;;1.40;1.40;;;;;;;;;;5017745;28;20053;-65
2022/07/02 10:54:29;;;;;;;1.75;1.67;;;;;;;;;;5017891;28;20379;-66
2022/07/02 10:56:55;;;;;;;1.77;1.50;;;;;;;;;;5017954;28;20468;-65
2022/07/02 10:59:21;;;;;;;1.65;1.55;;;;;;;;;;5017608;28;20029;-65
2022/07/02 11:01:46;;;;;;;1.92;1.60;;;;;;;;;;5017832;28;20040;-66
2022/07/02 11:04:19;;;;;;;1.92;1.58;;;;;;;;;;4999912;28;20112;-65
2022/07/02 11:06:45;;;;;;;1.60;1.60;;;;;;;;;;4999846;28;20373;-65
2022/07/02 11:09:10;;;;;;;1.65;1.58;;;;;;;;;;5017237;28;20045;-65
2022/07/02 11:11:36;;;;;;;1.73;1.70;;;;;;;;;;5000483;28;20077;-65
2022/07/02 11:14:08;;;;;;;1.60;1.60;;;;;;;;;;5017551;28;20034;-65
2022/07/02 11:16:37;;;;;;;3.00;2.80;;;;;;;;;;5017557;28;20084;-66
2022/07/02 11:19:03;;;;;;;3.50;3.28;;;;;;;;;;5017543;28;20022;-66
2022/07/02 11:21:29;;;;;;;6.00;4.13;;;;;;;;;;5017458;28;20495;-65
2022/07/02 11:23:54;;;;;;;3.00;2.80;;;;;;;;;;5017424;28;20022;-65
2022/07/02 11:26:23;;;;;;;4.32;3.92;;;;;;;;;;5017078;28;20066;-66
2022/07/02 11:28:48;;;;;;;2.67;2.47;;;;;;;;;;5017366;28;20034;-65
2022/07/02 11:31:15;;;;;;;2.80;2.70;;;;;;;;;;5017283;28;20038;-65
2022/07/02 11:33:41;;;;;;;3.65;2.42;;;;;;;;;;5016897;28;20022;-65
2022/07/02 11:36:08;;;;;;;2.20;2.10;;;;;;;;;;5017215;28;20034;-64
2022/07/02 11:38:37;;;;;;;2.20;2.10;;;;;;;;;;5017425;28;20017;-65
2022/07/02 11:41:03;;;;;;;3.53;1.70;;;;;;;;;;5016814;28;20036;-65
2022/07/02 11:43:28;;;;;;;2.47;2.28;;;;;;;;;;5017089;28;20112;-65
2022/07/02 11:45:54;;;;;;;1.75;1.65;;;;;;;;;;5017026;28;20044;-65
2022/07/02 11:48:21;;;;;;;2.10;2.00;;;;;;;;;;5017263;28;20022;-65
2022/07/02 11:50:59;;;;;;;1.73;1.63;;;;;;;;;;5016950;28;20083;-65
2022/07/02 11:53:25;;;;;;;2.10;1.90;;;;;;;;;;5016789;28;20062;-64
2022/07/02 11:55:51;;;;;;;1.70;1.70;;;;;;;;;;5016562;28;20060;-65
2022/07/02 11:58:17;;;;;;;1.90;1.90;;;;;;;;;;5017064;28;20025;-65
2022/07/02 12:00:43;;;;;;;1.70;1.60;;;;;;;;;;5016574;28;20360;-65
2022/07/02 12:03:10;;;;;;;2.05;1.70;;;;;;;;;;5016680;28;20388;-64
2022/07/02 12:05:35;;;;;;;1.85;1.40;;;;;;;;;;5016389;28;20017;-66
2022/07/02 12:08:01;;;;;;;1.73;1.60;;;;;;;;;;5016356;28;20038;-65
2022/07/02 12:10:27;;;;;;;1.58;1.48;;;;;;;;;;5016846;28;20033;-66
2022/07/02 12:12:52;;;;;;;2.35;1.30;;;;;;;;;;5016209;28;20022;-66
2022/07/02 12:15:17;;;;;;;1.50;1.50;;;;;;;;;;5016476;28;20076;-65
2022/07/02 12:17:46;;;;;;;3.00;1.60;;;;;;;;;;5016740;28;20412;-65
2022/07/02 12:20:12;;;;;;;1.48;1.48;;;;;;;;;;4998510;28;20025;-65
2022/07/02 12:22:38;;;;;;;1.27;1.27;;;;;;;;;;5016073;28;20095;-64
2022/07/02 12:25:05;;;;;;;1.90;1.40;;;;;;;;;;5016037;28;20435;-64
2022/07/02 12:27:34;;;;;;;2.55;1.30;;;;;;;;;;5016227;28;20061;-65
2022/07/02 12:30:10;;;;;;;1.42;1.35;;;;;;;;;;5016179;28;20459;-65
2022/07/02 12:32:39;;;;;;;1.95;1.38;;;;;;;;;;5016113;28;20384;-65
2022/07/02 12:35:08;;;;;;;2.20;1.52;;;;;;;;;;5015886;28;20018;-65
2022/07/02 12:37:36;;;;;;;1.63;1.50;;;;;;;;;;5016104;28;20476;-65
2022/07/02 12:40:01;;;;;;;1.23;1.23;;;;;;;;;;4998213;28;20507;-65
2022/07/02 12:42:28;;;;;;;1.52;1.42;;;;;;;;;;4982018;28;20034;-65
2022/07/02 12:44:53;;;;;;;1.38;1.30;;;;;;;;;;4998075;28;20439;-65
2022/07/02 12:47:22;;;;;;;1.20;1.20;;;;;;;;;;4998007;28;20065;-65
2022/07/02 12:49:52;;;;;;;1.33;1.23;;;;;;;;;;5015557;28;20033;-66
2022/07/02 12:52:17;;;;;;;1.60;1.50;;;;;;;;;;5015783;28;20522;-65
2022/07/02 12:54:42;;;;;;;1.33;1.27;;;;;;;;;;5015502;28;20049;-65
2022/07/02 12:57:21;;;;;;;1.30;1.30;;;;;;;;;;5015958;28;20121;-65
2022/07/02 12:59:47;;;;;;;1.48;1.40;;;;;;;;;;5015638;28;20025;-65
2022/07/02 13:02:17;;;;;;;1.40;1.40;;;;;;;;;;5015313;28;20021;-65
2022/07/02 13:04:44;;;;;;;1.40;1.30;;;;;;;;;;5015565;28;20032;-66
2022/07/02 13:07:10;;;;;;;1.40;1.30;;;;;;;;;;5015252;28;20431;-66
2022/07/02 13:09:35;;;;;;;0.95;0.95;;;;;;;;;;4981304;28;20134;-65
2022/07/02 13:12:01;;;;;;;1.30;1.30;;;;;;;;;;5014826;28;20061;-65
2022/07/02 13:14:26;;;;;;;2.08;1.60;;;;;;;;;;5015301;28;20038;-65
2022/07/02 13:16:52;;;;;;;1.45;1.20;;;;;;;;;;5015313;28;20022;-65
2022/07/02 13:19:17;;;;;;;1.70;1.60;;;;;;;;;;5015309;28;20030;-65
2022/07/02 13:21:42;;;;;;;1.65;1.55;;;;;;;;;;5015500;28;20029;-65
2022/07/02 13:24:08;;;;;;;1.50;1.50;;;;;;;;;;5015216;28;20091;-65
2022/07/02 13:26:33;;;;;;;1.70;1.60;;;;;;;;;;5015450;28;20036;-65
2022/07/02 13:29:00;;;;;;;1.42;1.42;;;;;;;;;;5015116;28;20045;-65
2022/07/02 13:31:26;;;;;;;1.80;1.70;;;;;;;;;;5015383;28;20022;-66
2022/07/02 13:33:51;;;;;;;1.23;1.23;;;;;;;;;;5014710;28;20030;-65
2022/07/02 13:36:16;;;;;;;1.40;1.40;;;;;;;;;;5015019;28;20014;-65
2022/07/02 13:38:42;;;;;;;1.40;1.30;;;;;;;;;;5015207;28;20076;-65
2022/07/02 13:41:08;;;;;;;1.25;1.25;;;;;;;;;;4997070;28;20476;-65
2022/07/02 13:43:33;;;;;;;2.15;1.60;;;;;;;;;;5014892;28;20069;-65
2022/07/02 13:45:59;;;;;;;2.15;1.58;;;;;;;;;;5015110;28;20046;-64
2022/07/02 13:48:24;;;;;;;1.50;1.40;;;;;;;;;;5014770;28;20156;-65
2022/07/02 13:50:49;;;;;;;1.75;1.30;;;;;;;;;;5014434;28;20048;-65
2022/07/02 13:53:15;;;;;;;1.40;1.30;;;;;;;;;;5014659;28;20113;-66
2022/07/02 13:55:40;;;;;;;1.40;1.35;;;;;;;;;;5014956;28;20072;-65
2022/07/02 13:58:06;;;;;;;1.40;1.40;;;;;;;;;;5014630;28;20376;-65
2022/07/02 14:00:31;;;;;;;1.33;1.27;;;;;;;;;;5014854;28;20468;-65
2022/07/02 14:02:56;;;;;;;1.40;1.40;;;;;;;;;;4997063;28;20076;-65
2022/07/02 14:05:22;;;;;;;1.38;1.38;;;;;;;;;;5014265;28;20021;-65
2022/07/02 14:07:48;;;;;;;1.60;1.50;;;;;;;;;;5014229;28;20045;-66
2022/07/02 14:10:13;;;;;;;1.50;1.40;;;;;;;;;;5014697;28;20036;-65
2022/07/02 14:12:38;;;;;;;1.63;1.58;;;;;;;;;;5014645;28;20026;-65
2022/07/02 14:15:04;;;;;;;1.52;1.40;;;;;;;;;;5014395;28;20030;-65
2022/07/02 14:17:29;;;;;;;1.60;1.45;;;;;;;;;;5014617;28;20185;-65
2022/07/02 14:19:55;;;;;;;1.27;1.25;;;;;;;;;;4996593;28;20499;-65
2022/07/02 14:22:21;;;;;;;1.50;1.40;;;;;;;;;;5013926;28;20136;-65
2022/07/02 14:24:47;;;;;;;1.58;1.48;;;;;;;;;;4998816;28;20045;-70
2022/07/02 14:27:12;;;;;;;1.73;1.50;;;;;;;;;;5014534;28;20049;-71
2022/07/02 14:29:38;;;;;;;1.42;1.42;;;;;;;;;;5013954;28;20534;-71
2022/07/02 14:32:03;;;;;;;1.83;1.50;;;;;;;;;;4996272;28;20456;-71
2022/07/02 14:34:29;;;;;;;1.30;1.30;;;;;;;;;;5014073;28;20041;-71
2022/07/02 14:36:54;;;;;;;2.38;2.03;;;;;;;;;;5014117;28;20463;-70
2022/07/02 14:39:19;;;;;;;2.92;1.63;;;;;;;;;;5014140;28;20026;-70
2022/07/02 14:41:45;;;;;;;1.40;1.25;;;;;;;;;;4996765;28;20101;-71
2022/07/02 14:44:11;;;;;;;2.05;1.27;;;;;;;;;;5013787;28;20034;-71